sensor_id;sensor_type;location;lat;lon;timestamp;temperature;humidity
69944;DHT22;57257;48.408;-4.498;2022-12-11T00:01:11;7.19;68.99
69944;DHT22;57257;48.408;-4.498;2022-12-11T00:03:38;7.14;69.10
69944;DHT22;57257;48.408;-4.498;2022-12-11T00:06:15;7.19;69.21
69944;DHT22;57257;48.408;-4.498;2022-12-11T00:08:41;7.16;69.31
69944;DHT22;57257;48.408;-4.498;2022-12-11T00:11:08;7.19;69.29
69944;DHT22;57257;48.408;-4.498;2022-12-11T00:13:34;7.21;69.35
69944;DHT22;57257;48.408;-4.498;2022-12-11T00:16:00;7.21;69.39
69944;DHT22;57257;48.408;-4.498;2022-12-11T00:18:25;7.23;69.34
69944;DHT22;57257;48.408;-4.498;2022-12-11T00:20:51;7.24;69.31
69944;DHT22;57257;48.408;-4.498;2022-12-11T00:23:16;7.24;69.28
69944;DHT22;57257;48.408;-4.498;2022-12-11T00:25:44;7.26;69.22
69944;DHT22;57257;48.408;-4.498;2022-12-11T00:28:11;7.26;69.30
69944;DHT22;57257;48.408;-4.498;2022-12-11T00:34:00;7.28;69.31
69944;DHT22;57257;48.408;-4.498;2022-12-11T00:36:26;7.27;69.29
69944;DHT22;57257;48.408;-4.498;2022-12-11T00:38:52;7.27;69.31
69944;DHT22;57257;48.408;-4.498;2022-12-11T00:41:18;7.30;69.27
69944;DHT22;57257;48.408;-4.498;2022-12-11T00:43:44;7.27;69.29
69944;DHT22;57257;48.408;-4.498;2022-12-11T00:46:10;7.24;69.39
69944;DHT22;57257;48.408;-4.498;2022-12-11T00:48:36;7.19;69.36
69944;DHT22;57257;48.408;-4.498;2022-12-11T00:51:02;7.20;69.48
69944;DHT22;57257;48.408;-4.498;2022-12-11T00:53:27;7.21;69.59
69944;DHT22;57257;48.408;-4.498;2022-12-11T00:55:53;7.26;69.59
69944;DHT22;57257;48.408;-4.498;2022-12-11T00:58:18;7.27;69.72
69944;DHT22;57257;48.408;-4.498;2022-12-11T01:00:44;7.30;69.72
69944;DHT22;57257;48.408;-4.498;2022-12-11T01:03:12;7.31;69.69
69944;DHT22;57257;48.408;-4.498;2022-12-11T01:05:38;7.33;69.69
69944;DHT22;57257;48.408;-4.498;2022-12-11T01:08:03;7.31;69.58
69944;DHT22;57257;48.408;-4.498;2022-12-11T01:10:29;7.34;69.53
69944;DHT22;57257;48.408;-4.498;2022-12-11T01:12:57;7.31;69.43
69944;DHT22;57257;48.408;-4.498;2022-12-11T01:15:26;7.26;69.28
69944;DHT22;57257;48.408;-4.498;2022-12-11T01:17:52;7.21;69.23
69944;DHT22;57257;48.408;-4.498;2022-12-11T01:20:19;7.19;69.29
69944;DHT22;57257;48.408;-4.498;2022-12-11T01:22:45;7.14;69.31
69944;DHT22;57257;48.408;-4.498;2022-12-11T01:25:11;7.13;69.35
69944;DHT22;57257;48.408;-4.498;2022-12-11T01:27:37;7.11;69.41
69944;DHT22;57257;48.408;-4.498;2022-12-11T01:30:05;7.13;69.36
69944;DHT22;57257;48.408;-4.498;2022-12-11T01:32:32;7.13;69.37
69944;DHT22;57257;48.408;-4.498;2022-12-11T01:34:58;7.13;69.31
69944;DHT22;57257;48.408;-4.498;2022-12-11T01:37:24;7.14;69.34
69944;DHT22;57257;48.408;-4.498;2022-12-11T01:39:49;7.16;69.34
69944;DHT22;57257;48.408;-4.498;2022-12-11T01:42:17;7.16;69.37
69944;DHT22;57257;48.408;-4.498;2022-12-11T01:47:09;7.19;69.37
69944;DHT22;57257;48.408;-4.498;2022-12-11T01:49:35;7.16;69.43
69944;DHT22;57257;48.408;-4.498;2022-12-11T01:52:10;7.16;69.49
69944;DHT22;57257;48.408;-4.498;2022-12-11T01:54:36;7.13;69.47
69944;DHT22;57257;48.408;-4.498;2022-12-11T01:57:07;7.11;69.46
69944;DHT22;57257;48.408;-4.498;2022-12-11T01:59:38;7.11;69.55
69944;DHT22;57257;48.408;-4.498;2022-12-11T02:02:09;7.10;69.37
69944;DHT22;57257;48.408;-4.498;2022-12-11T02:04:38;7.01;69.30
69944;DHT22;57257;48.408;-4.498;2022-12-11T02:07:04;6.96;69.46
69944;DHT22;57257;48.408;-4.498;2022-12-11T02:09:32;6.92;69.69
69944;DHT22;57257;48.408;-4.498;2022-12-11T02:14:52;6.82;69.83
69944;DHT22;57257;48.408;-4.498;2022-12-11T02:25:08;6.64;70.61
69944;DHT22;57257;48.408;-4.498;2022-12-11T02:27:46;6.64;70.74
69944;DHT22;57257;48.408;-4.498;2022-12-11T02:30:14;6.57;70.95
69944;DHT22;57257;48.408;-4.498;2022-12-11T02:33:06;6.61;71.06
69944;DHT22;57257;48.408;-4.498;2022-12-11T02:35:43;6.65;71.06
69944;DHT22;57257;48.408;-4.498;2022-12-11T02:38:16;6.69;71.00
69944;DHT22;57257;48.408;-4.498;2022-12-11T02:40:43;6.75;70.87
69944;DHT22;57257;48.408;-4.498;2022-12-11T02:43:12;6.80;70.70
69944;DHT22;57257;48.408;-4.498;2022-12-11T02:45:39;6.76;70.79
69944;DHT22;57257;48.408;-4.498;2022-12-11T02:48:09;6.75;70.77
69944;DHT22;57257;48.408;-4.498;2022-12-11T02:50:40;6.72;70.91
69944;DHT22;57257;48.408;-4.498;2022-12-11T02:53:07;6.76;70.95
69944;DHT22;57257;48.408;-4.498;2022-12-11T02:55:34;6.79;71.03
69944;DHT22;57257;48.408;-4.498;2022-12-11T02:58:19;6.82;71.02
69944;DHT22;57257;48.408;-4.498;2022-12-11T03:00:46;6.85;71.11
69944;DHT22;57257;48.408;-4.498;2022-12-11T03:03:12;6.86;71.05
69944;DHT22;57257;48.408;-4.498;2022-12-11T03:08:59;6.90;70.89
69944;DHT22;57257;48.408;-4.498;2022-12-11T03:11:24;6.90;70.87
69944;DHT22;57257;48.408;-4.498;2022-12-11T03:13:51;6.90;70.84
69944;DHT22;57257;48.408;-4.498;2022-12-11T03:18:51;6.93;70.79
69944;DHT22;57257;48.408;-4.498;2022-12-11T03:21:32;6.92;70.80
69944;DHT22;57257;48.408;-4.498;2022-12-11T03:24:23;6.89;70.83
69944;DHT22;57257;48.408;-4.498;2022-12-11T03:26:59;6.92;70.80
69944;DHT22;57257;48.408;-4.498;2022-12-11T03:29:31;6.89;70.77
69944;DHT22;57257;48.408;-4.498;2022-12-11T03:32:07;6.86;70.71
69944;DHT22;57257;48.408;-4.498;2022-12-11T03:34:45;6.85;70.61
69944;DHT22;57257;48.408;-4.498;2022-12-11T03:37:15;6.79;70.56
69944;DHT22;57257;48.408;-4.498;2022-12-11T03:39:47;6.73;70.53
69944;DHT22;57257;48.408;-4.498;2022-12-11T03:42:15;6.73;70.48
69944;DHT22;57257;48.408;-4.498;2022-12-11T03:44:44;6.69;70.69
69944;DHT22;57257;48.408;-4.498;2022-12-11T03:47:14;6.69;70.72
69944;DHT22;57257;48.408;-4.498;2022-12-11T03:49:42;6.68;70.79
69944;DHT22;57257;48.408;-4.498;2022-12-11T03:52:10;6.69;70.73
69944;DHT22;57257;48.408;-4.498;2022-12-11T03:54:38;6.65;70.64
69944;DHT22;57257;48.408;-4.498;2022-12-11T03:57:05;6.64;70.72
69944;DHT22;57257;48.408;-4.498;2022-12-11T03:59:31;6.62;70.70
69944;DHT22;57257;48.408;-4.498;2022-12-11T04:01:57;6.62;70.81
69944;DHT22;57257;48.408;-4.498;2022-12-11T04:04:22;6.62;70.89
69944;DHT22;57257;48.408;-4.498;2022-12-11T04:06:48;6.61;70.93
69944;DHT22;57257;48.408;-4.498;2022-12-11T04:09:13;6.64;70.74
69944;DHT22;57257;48.408;-4.498;2022-12-11T04:11:39;6.59;70.47
69944;DHT22;57257;48.408;-4.498;2022-12-11T04:14:09;6.50;70.50
69944;DHT22;57257;48.408;-4.498;2022-12-11T04:16:54;6.50;70.65
69944;DHT22;57257;48.408;-4.498;2022-12-11T04:19:20;6.48;70.77
69944;DHT22;57257;48.408;-4.498;2022-12-11T04:22:05;6.49;70.86
69944;DHT22;57257;48.408;-4.498;2022-12-11T04:24:49;6.49;70.96
69944;DHT22;57257;48.408;-4.498;2022-12-11T04:27:16;6.55;71.04
69944;DHT22;57257;48.408;-4.498;2022-12-11T04:30:04;6.52;70.99
69944;DHT22;57257;48.408;-4.498;2022-12-11T04:35:51;6.48;70.86
69944;DHT22;57257;48.408;-4.498;2022-12-11T04:38:17;6.48;70.94
69944;DHT22;57257;48.408;-4.498;2022-12-11T04:40:42;6.48;70.89
69944;DHT22;57257;48.408;-4.498;2022-12-11T04:43:08;6.45;70.74
69944;DHT22;57257;48.408;-4.498;2022-12-11T04:45:33;6.42;70.49
69944;DHT22;57257;48.408;-4.498;2022-12-11T04:47:59;6.35;70.30
69944;DHT22;57257;48.408;-4.498;2022-12-11T04:50:24;6.28;70.27
69944;DHT22;57257;48.408;-4.498;2022-12-11T04:52:53;6.24;70.34
69944;DHT22;57257;48.408;-4.498;2022-12-11T04:55:19;6.17;70.40
69944;DHT22;57257;48.408;-4.498;2022-12-11T04:57:44;6.15;70.39
69944;DHT22;57257;48.408;-4.498;2022-12-11T05:00:11;6.11;70.37
69944;DHT22;57257;48.408;-4.498;2022-12-11T05:02:38;6.07;70.41
69944;DHT22;57257;48.408;-4.498;2022-12-11T05:05:05;6.02;70.32
69944;DHT22;57257;48.408;-4.498;2022-12-11T05:07:31;6.00;70.38
69944;DHT22;57257;48.408;-4.498;2022-12-11T05:09:56;5.97;70.48
69944;DHT22;57257;48.408;-4.498;2022-12-11T05:12:22;5.95;70.36
69944;DHT22;57257;48.408;-4.498;2022-12-11T05:14:51;5.91;70.25
69944;DHT22;57257;48.408;-4.498;2022-12-11T05:17:17;5.86;70.42
69944;DHT22;57257;48.408;-4.498;2022-12-11T05:19:42;5.87;70.40
69944;DHT22;57257;48.408;-4.498;2022-12-11T05:22:08;5.83;70.35
69944;DHT22;57257;48.408;-4.498;2022-12-11T05:24:33;5.81;70.17
69944;DHT22;57257;48.408;-4.498;2022-12-11T05:26:58;5.74;69.96
69944;DHT22;57257;48.408;-4.498;2022-12-11T05:29:24;5.70;70.23
69944;DHT22;57257;48.408;-4.498;2022-12-11T05:31:49;5.69;70.34
69944;DHT22;57257;48.408;-4.498;2022-12-11T05:34:15;5.70;70.62
69944;DHT22;57257;48.408;-4.498;2022-12-11T05:36:41;5.75;70.86
69944;DHT22;57257;48.408;-4.498;2022-12-11T05:39:06;5.77;70.77
69944;DHT22;57257;48.408;-4.498;2022-12-11T05:41:32;5.74;70.65
69944;DHT22;57257;48.408;-4.498;2022-12-11T05:43:57;5.73;70.46
69944;DHT22;57257;48.408;-4.498;2022-12-11T05:46:27;5.69;70.41
69944;DHT22;57257;48.408;-4.498;2022-12-11T05:48:55;5.67;70.58
69944;DHT22;57257;48.408;-4.498;2022-12-11T05:51:21;5.67;70.65
69944;DHT22;57257;48.408;-4.498;2022-12-11T05:53:49;5.64;70.50
69944;DHT22;57257;48.408;-4.498;2022-12-11T05:56:20;5.59;70.40
69944;DHT22;57257;48.408;-4.498;2022-12-11T05:58:47;5.56;70.36
69944;DHT22;57257;48.408;-4.498;2022-12-11T06:01:19;5.54;70.41
69944;DHT22;57257;48.408;-4.498;2022-12-11T06:03:45;5.49;70.38
69944;DHT22;57257;48.408;-4.498;2022-12-11T06:06:11;5.46;70.41
69944;DHT22;57257;48.408;-4.498;2022-12-11T06:08:37;5.46;70.36
69944;DHT22;57257;48.408;-4.498;2022-12-11T06:11:03;5.43;70.37
69944;DHT22;57257;48.408;-4.498;2022-12-11T06:13:29;5.42;70.34
69944;DHT22;57257;48.408;-4.498;2022-12-11T06:15:59;5.39;70.34
69944;DHT22;57257;48.408;-4.498;2022-12-11T06:18:25;5.33;70.12
69944;DHT22;57257;48.408;-4.498;2022-12-11T06:20:50;5.26;69.92
69944;DHT22;57257;48.408;-4.498;2022-12-11T06:23:16;5.18;69.94
69944;DHT22;57257;48.408;-4.498;2022-12-11T06:25:41;5.13;70.24
69944;DHT22;57257;48.408;-4.498;2022-12-11T06:28:06;5.13;70.46
69944;DHT22;57257;48.408;-4.498;2022-12-11T06:30:32;5.19;70.70
69944;DHT22;57257;48.408;-4.498;2022-12-11T06:32:58;5.19;70.67
69944;DHT22;57257;48.408;-4.498;2022-12-11T06:35:24;5.20;70.64
69944;DHT22;57257;48.408;-4.498;2022-12-11T06:37:50;5.22;70.41
69944;DHT22;57257;48.408;-4.498;2022-12-11T06:40:15;5.16;70.39
69944;DHT22;57257;48.408;-4.498;2022-12-11T06:42:41;5.13;70.46
69944;DHT22;57257;48.408;-4.498;2022-12-11T06:45:07;5.16;70.49
69944;DHT22;57257;48.408;-4.498;2022-12-11T06:47:32;5.19;70.62
69944;DHT22;57257;48.408;-4.498;2022-12-11T06:49:58;5.22;70.62
69944;DHT22;57257;48.408;-4.498;2022-12-11T06:52:25;5.27;70.58
69944;DHT22;57257;48.408;-4.498;2022-12-11T06:54:54;5.29;70.55
69944;DHT22;57257;48.408;-4.498;2022-12-11T06:57:20;5.27;70.49
69944;DHT22;57257;48.408;-4.498;2022-12-11T06:59:45;5.29;70.44
69944;DHT22;57257;48.408;-4.498;2022-12-11T07:02:12;5.30;70.42
69944;DHT22;57257;48.408;-4.498;2022-12-11T07:04:38;5.33;70.42
69944;DHT22;57257;48.408;-4.498;2022-12-11T07:07:04;5.35;70.42
69944;DHT22;57257;48.408;-4.498;2022-12-11T07:09:30;5.36;70.44
69944;DHT22;57257;48.408;-4.498;2022-12-11T07:11:55;5.42;70.45
69944;DHT22;57257;48.408;-4.498;2022-12-11T07:14:21;5.43;70.49
69944;DHT22;57257;48.408;-4.498;2022-12-11T07:16:46;5.47;70.46
69944;DHT22;57257;48.408;-4.498;2022-12-11T07:19:11;5.51;70.42
69944;DHT22;57257;48.408;-4.498;2022-12-11T07:21:37;5.53;70.42
69944;DHT22;57257;48.408;-4.498;2022-12-11T07:24:02;5.51;70.37
69944;DHT22;57257;48.408;-4.498;2022-12-11T07:26:28;5.53;70.43
69944;DHT22;57257;48.408;-4.498;2022-12-11T07:28:57;5.54;70.50
69944;DHT22;57257;48.408;-4.498;2022-12-11T07:31:24;5.57;70.54
69944;DHT22;57257;48.408;-4.498;2022-12-11T07:34:02;5.60;70.57
69944;DHT22;57257;48.408;-4.498;2022-12-11T07:36:29;5.61;70.60
69944;DHT22;57257;48.408;-4.498;2022-12-11T07:38:55;5.63;70.64
69944;DHT22;57257;48.408;-4.498;2022-12-11T07:41:22;5.61;70.61
69944;DHT22;57257;48.408;-4.498;2022-12-11T07:43:48;5.63;70.60
69944;DHT22;57257;48.408;-4.498;2022-12-11T07:46:17;5.66;70.65
69944;DHT22;57257;48.408;-4.498;2022-12-11T07:48:44;5.67;70.70
69944;DHT22;57257;48.408;-4.498;2022-12-11T07:51:12;5.63;70.74
69944;DHT22;57257;48.408;-4.498;2022-12-11T07:53:39;5.60;70.87
69944;DHT22;57257;48.408;-4.498;2022-12-11T07:56:05;5.61;71.00
69944;DHT22;57257;48.408;-4.498;2022-12-11T07:58:31;5.57;71.13
69944;DHT22;57257;48.408;-4.498;2022-12-11T08:00:56;5.60;71.13
69944;DHT22;57257;48.408;-4.498;2022-12-11T08:03:22;5.57;71.26
69944;DHT22;57257;48.408;-4.498;2022-12-11T08:05:49;5.59;71.30
69944;DHT22;57257;48.408;-4.498;2022-12-11T08:08:15;5.60;71.26
69944;DHT22;57257;48.408;-4.498;2022-12-11T08:10:41;5.61;71.20
69944;DHT22;57257;48.408;-4.498;2022-12-11T08:13:07;5.60;71.16
69944;DHT22;57257;48.408;-4.498;2022-12-11T08:15:32;5.54;71.20
69944;DHT22;57257;48.408;-4.498;2022-12-11T08:17:58;5.51;71.14
69944;DHT22;57257;48.408;-4.498;2022-12-11T08:20:24;5.50;71.36
69944;DHT22;57257;48.408;-4.498;2022-12-11T08:22:49;5.49;71.37
69944;DHT22;57257;48.408;-4.498;2022-12-11T08:25:15;5.53;71.45
69944;DHT22;57257;48.408;-4.498;2022-12-11T08:27:40;5.57;71.41
69944;DHT22;57257;48.408;-4.498;2022-12-11T08:30:06;5.59;71.45
69944;DHT22;57257;48.408;-4.498;2022-12-11T08:32:33;5.60;71.39
69944;DHT22;57257;48.408;-4.498;2022-12-11T08:34:58;5.60;71.44
69944;DHT22;57257;48.408;-4.498;2022-12-11T08:37:24;5.57;71.53
69944;DHT22;57257;48.408;-4.498;2022-12-11T08:39:49;5.63;71.57
69944;DHT22;57257;48.408;-4.498;2022-12-11T08:42:14;5.69;71.63
69944;DHT22;57257;48.408;-4.498;2022-12-11T08:44:40;5.70;71.57
69944;DHT22;57257;48.408;-4.498;2022-12-11T08:47:05;5.70;71.54
69944;DHT22;57257;48.408;-4.498;2022-12-11T08:49:31;5.77;71.58
69944;DHT22;57257;48.408;-4.498;2022-12-11T08:51:56;5.78;71.69
69944;DHT22;57257;48.408;-4.498;2022-12-11T08:54:21;5.84;71.63
69944;DHT22;57257;48.408;-4.498;2022-12-11T08:56:47;5.81;71.53
69944;DHT22;57257;48.408;-4.498;2022-12-11T08:59:12;5.84;71.60
69944;DHT22;57257;48.408;-4.498;2022-12-11T09:01:38;5.84;71.68
69944;DHT22;57257;48.408;-4.498;2022-12-11T09:04:03;5.89;71.68
69944;DHT22;57257;48.408;-4.498;2022-12-11T09:06:31;5.87;71.76
69944;DHT22;57257;48.408;-4.498;2022-12-11T09:08:58;5.89;71.81
69944;DHT22;57257;48.408;-4.498;2022-12-11T09:11:27;5.91;71.87
69944;DHT22;57257;48.408;-4.498;2022-12-11T09:13:53;5.94;71.87
69944;DHT22;57257;48.408;-4.498;2022-12-11T09:16:21;5.93;71.70
69944;DHT22;57257;48.408;-4.498;2022-12-11T09:18:48;5.94;71.74
69944;DHT22;57257;48.408;-4.498;2022-12-11T09:21:16;5.95;71.66
69944;DHT22;57257;48.408;-4.498;2022-12-11T09:23:42;5.94;71.63
69944;DHT22;57257;48.408;-4.498;2022-12-11T09:26:10;5.87;71.54
69944;DHT22;57257;48.408;-4.498;2022-12-11T09:28:36;5.84;71.76
69944;DHT22;57257;48.408;-4.498;2022-12-11T09:31:23;5.83;71.88
69944;DHT22;57257;48.408;-4.498;2022-12-11T09:33:50;5.87;71.88
69944;DHT22;57257;48.408;-4.498;2022-12-11T09:36:18;5.87;71.83
69944;DHT22;57257;48.408;-4.498;2022-12-11T09:38:44;5.93;71.74
69944;DHT22;57257;48.408;-4.498;2022-12-11T09:46:31;5.74;71.55
69944;DHT22;57257;48.408;-4.498;2022-12-11T09:48:58;5.78;71.80
69944;DHT22;57257;48.408;-4.498;2022-12-11T09:51:28;5.77;71.91
69944;DHT22;57257;48.408;-4.498;2022-12-11T09:54:00;5.80;71.93
69944;DHT22;57257;48.408;-4.498;2022-12-11T09:56:44;5.81;71.93
69944;DHT22;57257;48.408;-4.498;2022-12-11T10:07:48;6.00;72.10
69944;DHT22;57257;48.408;-4.498;2022-12-11T10:10:39;6.11;72.10
69944;DHT22;57257;48.408;-4.498;2022-12-11T10:18:48;6.25;71.67
69944;DHT22;57257;48.408;-4.498;2022-12-11T10:21:16;6.29;71.58
69944;DHT22;57257;48.408;-4.498;2022-12-11T10:23:48;6.32;71.47
69944;DHT22;57257;48.408;-4.498;2022-12-11T10:26:17;6.35;71.42
69944;DHT22;57257;48.408;-4.498;2022-12-11T10:28:43;6.39;71.34
69944;DHT22;57257;48.408;-4.498;2022-12-11T10:31:19;6.42;71.35
69944;DHT22;57257;48.408;-4.498;2022-12-11T10:33:58;6.45;71.11
69944;DHT22;57257;48.408;-4.498;2022-12-11T10:36:30;6.44;71.00
69944;DHT22;57257;48.408;-4.498;2022-12-11T10:38:57;6.31;70.98
69944;DHT22;57257;48.408;-4.498;2022-12-11T10:41:36;6.28;71.08
69944;DHT22;57257;48.408;-4.498;2022-12-11T10:44:17;6.22;71.03
69944;DHT22;57257;48.408;-4.498;2022-12-11T10:46:44;6.22;71.25
69944;DHT22;57257;48.408;-4.498;2022-12-11T10:49:43;6.28;71.52
69944;DHT22;57257;48.408;-4.498;2022-12-11T10:52:22;6.32;71.36
69944;DHT22;57257;48.408;-4.498;2022-12-11T10:54:55;6.24;71.08
69944;DHT22;57257;48.408;-4.498;2022-12-11T10:57:28;6.14;71.31
69944;DHT22;57257;48.408;-4.498;2022-12-11T10:59:54;6.08;71.49
69944;DHT22;57257;48.408;-4.498;2022-12-11T11:02:49;6.11;71.78
69944;DHT22;57257;48.408;-4.498;2022-12-11T11:05:26;6.17;71.82
69944;DHT22;57257;48.408;-4.498;2022-12-11T11:10:27;6.12;71.90
69944;DHT22;57257;48.408;-4.498;2022-12-11T11:13:00;6.02;72.18
69944;DHT22;57257;48.408;-4.498;2022-12-11T11:15:28;5.97;72.54
69944;DHT22;57257;48.408;-4.498;2022-12-11T11:18:20;6.01;72.86
69944;DHT22;57257;48.408;-4.498;2022-12-11T11:20:46;5.98;73.08
69944;DHT22;57257;48.408;-4.498;2022-12-11T11:23:14;5.91;73.38
69944;DHT22;57257;48.408;-4.498;2022-12-11T11:25:49;5.93;73.81
69944;DHT22;57257;48.408;-4.498;2022-12-11T11:31:04;5.97;73.96
69944;DHT22;57257;48.408;-4.498;2022-12-11T11:33:32;6.07;74.16
69944;DHT22;57257;48.408;-4.498;2022-12-11T11:36:00;6.17;74.00
69944;DHT22;57257;48.408;-4.498;2022-12-11T11:43:45;6.49;73.68
69944;DHT22;57257;48.408;-4.498;2022-12-11T11:46:34;6.64;73.62
69944;DHT22;57257;48.408;-4.498;2022-12-11T11:51:43;6.71;73.24
69944;DHT22;57257;48.408;-4.498;2022-12-11T11:54:42;6.73;73.09
69944;DHT22;57257;48.408;-4.498;2022-12-11T11:57:14;6.79;73.16
69944;DHT22;57257;48.408;-4.498;2022-12-11T11:59:46;6.82;72.97
69944;DHT22;57257;48.408;-4.498;2022-12-11T12:02:16;6.89;72.89
69944;DHT22;57257;48.408;-4.498;2022-12-11T12:04:43;7.01;73.06
69944;DHT22;57257;48.408;-4.498;2022-12-11T12:12:56;7.19;72.72
69944;DHT22;57257;48.408;-4.498;2022-12-11T12:15:32;7.24;72.59
69944;DHT22;57257;48.408;-4.498;2022-12-11T12:23:24;7.41;72.45
69944;DHT22;57257;48.408;-4.498;2022-12-11T12:29:32;7.46;72.23
69944;DHT22;57257;48.408;-4.498;2022-12-11T12:32:19;7.58;71.98
69944;DHT22;57257;48.408;-4.498;2022-12-11T12:35:13;7.72;71.76
69944;DHT22;57257;48.408;-4.498;2022-12-11T12:37:57;7.86;71.67
69944;DHT22;57257;48.408;-4.498;2022-12-11T12:45:38;7.88;71.27
69944;DHT22;57257;48.408;-4.498;2022-12-11T12:48:08;7.89;71.49
69944;DHT22;57257;48.408;-4.498;2022-12-11T12:50:41;7.94;71.11
69944;DHT22;57257;48.408;-4.498;2022-12-11T12:53:15;7.86;70.79
69944;DHT22;57257;48.408;-4.498;2022-12-11T12:55:42;7.79;70.75
69944;DHT22;57257;48.408;-4.498;2022-12-11T13:01:08;7.82;71.03
69944;DHT22;57257;48.408;-4.498;2022-12-11T13:03:55;7.85;70.80
69944;DHT22;57257;48.408;-4.498;2022-12-11T13:06:35;7.95;70.90
69944;DHT22;57257;48.408;-4.498;2022-12-11T13:09:20;8.01;70.77
69944;DHT22;57257;48.408;-4.498;2022-12-11T13:11:48;8.09;70.65
69944;DHT22;57257;48.408;-4.498;2022-12-11T13:16:46;8.12;69.96
69944;DHT22;57257;48.408;-4.498;2022-12-11T13:21:58;8.13;70.17
69944;DHT22;57257;48.408;-4.498;2022-12-11T13:24:29;8.08;70.13
69944;DHT22;57257;48.408;-4.498;2022-12-11T13:26:55;8.26;70.28
69944;DHT22;57257;48.408;-4.498;2022-12-11T13:29:38;8.57;69.90
69944;DHT22;57257;48.408;-4.498;2022-12-11T13:34:49;8.81;68.43
69944;DHT22;57257;48.408;-4.498;2022-12-11T13:37:34;8.94;68.54
69944;DHT22;57257;48.408;-4.498;2022-12-11T13:40:07;9.51;68.25
69944;DHT22;57257;48.408;-4.498;2022-12-11T13:42:47;10.03;68.12
69944;DHT22;57257;48.408;-4.498;2022-12-11T13:45:20;10.41;66.53
69944;DHT22;57257;48.408;-4.498;2022-12-11T13:47:47;10.17;65.82
69944;DHT22;57257;48.408;-4.498;2022-12-11T13:50:28;9.90;66.25
69944;DHT22;57257;48.408;-4.498;2022-12-11T13:52:55;9.75;66.52
69944;DHT22;57257;48.408;-4.498;2022-12-11T13:55:27;9.71;66.78
69944;DHT22;57257;48.408;-4.498;2022-12-11T13:57:54;9.62;66.88
69944;DHT22;57257;48.408;-4.498;2022-12-11T14:00:30;9.46;66.96
69944;DHT22;57257;48.408;-4.498;2022-12-11T14:03:00;9.34;67.08
69944;DHT22;57257;48.408;-4.498;2022-12-11T14:05:27;9.20;66.99
69944;DHT22;57257;48.408;-4.498;2022-12-11T14:07:56;9.20;67.59
69944;DHT22;57257;48.408;-4.498;2022-12-11T14:10:25;9.63;67.21
69944;DHT22;57257;48.408;-4.498;2022-12-11T14:13:03;9.98;66.62
69944;DHT22;57257;48.408;-4.498;2022-12-11T14:15:31;9.95;65.13
69944;DHT22;57257;48.408;-4.498;2022-12-11T14:17:58;9.74;65.59
69944;DHT22;57257;48.408;-4.498;2022-12-11T14:20:29;9.45;65.51
69944;DHT22;57257;48.408;-4.498;2022-12-11T14:23:06;9.20;66.36
69944;DHT22;57257;48.408;-4.498;2022-12-11T14:25:32;9.14;67.00
69944;DHT22;57257;48.408;-4.498;2022-12-11T14:27:57;9.08;67.00
69944;DHT22;57257;48.408;-4.498;2022-12-11T14:30:31;8.91;67.25
69944;DHT22;57257;48.408;-4.498;2022-12-11T14:33:00;8.83;67.80
69944;DHT22;57257;48.408;-4.498;2022-12-11T14:35:29;8.81;68.37
69944;DHT22;57257;48.408;-4.498;2022-12-11T14:37:58;8.93;68.52
69944;DHT22;57257;48.408;-4.498;2022-12-11T14:40:30;9.08;68.38
69944;DHT22;57257;48.408;-4.498;2022-12-11T14:43:01;9.17;68.34
69944;DHT22;57257;48.408;-4.498;2022-12-11T14:45:36;9.25;68.35
69944;DHT22;57257;48.408;-4.498;2022-12-11T14:48:07;9.36;68.04
69944;DHT22;57257;48.408;-4.498;2022-12-11T14:50:43;9.30;68.24
69944;DHT22;57257;48.408;-4.498;2022-12-11T14:53:16;9.35;68.33
69944;DHT22;57257;48.408;-4.498;2022-12-11T14:55:47;9.31;68.17
69944;DHT22;57257;48.408;-4.498;2022-12-11T14:58:19;9.31;68.22
69944;DHT22;57257;48.408;-4.498;2022-12-11T15:01:04;9.24;68.20
69944;DHT22;57257;48.408;-4.498;2022-12-11T15:03:32;9.10;68.40
69944;DHT22;57257;48.408;-4.498;2022-12-11T15:05:58;9.00;68.76
69944;DHT22;57257;48.408;-4.498;2022-12-11T15:11:11;8.80;69.26
69944;DHT22;57257;48.408;-4.498;2022-12-11T15:13:55;8.74;69.27
69944;DHT22;57257;48.408;-4.498;2022-12-11T15:16:23;8.63;69.31
69944;DHT22;57257;48.408;-4.498;2022-12-11T15:18:51;8.50;69.57
69944;DHT22;57257;48.408;-4.498;2022-12-11T15:21:18;8.40;69.72
69944;DHT22;57257;48.408;-4.498;2022-12-11T15:23:54;8.28;70.16
69944;DHT22;57257;48.408;-4.498;2022-12-11T15:29:03;8.21;70.70
69944;DHT22;57257;48.408;-4.498;2022-12-11T15:31:31;8.19;70.63
69944;DHT22;57257;48.408;-4.498;2022-12-11T15:33:58;8.19;70.74
69944;DHT22;57257;48.408;-4.498;2022-12-11T15:36:25;8.19;70.78
69944;DHT22;57257;48.408;-4.498;2022-12-11T15:38:51;8.21;70.85
69944;DHT22;57257;48.408;-4.498;2022-12-11T15:41:18;8.22;70.55
69944;DHT22;57257;48.408;-4.498;2022-12-11T15:43:56;8.19;70.58
69944;DHT22;57257;48.408;-4.498;2022-12-11T15:46:22;8.15;70.64
69944;DHT22;57257;48.408;-4.498;2022-12-11T15:48:48;8.06;70.61
69944;DHT22;57257;48.408;-4.498;2022-12-11T15:51:15;8.01;70.81
69944;DHT22;57257;48.408;-4.498;2022-12-11T15:53:40;7.96;71.03
69944;DHT22;57257;48.408;-4.498;2022-12-11T15:56:10;7.95;71.09
69944;DHT22;57257;48.408;-4.498;2022-12-11T15:58:37;7.94;71.04
69944;DHT22;57257;48.408;-4.498;2022-12-11T16:01:02;7.92;71.13
69944;DHT22;57257;48.408;-4.498;2022-12-11T16:03:28;7.88;71.38
69944;DHT22;57257;48.408;-4.498;2022-12-11T16:05:53;7.89;71.40
69944;DHT22;57257;48.408;-4.498;2022-12-11T16:08:21;7.91;71.51
69944;DHT22;57257;48.408;-4.498;2022-12-11T16:10:47;7.85;71.58
69944;DHT22;57257;48.408;-4.498;2022-12-11T16:13:13;7.85;71.85
69944;DHT22;57257;48.408;-4.498;2022-12-11T16:15:41;7.84;71.72
69944;DHT22;57257;48.408;-4.498;2022-12-11T16:18:09;7.85;71.75
69944;DHT22;57257;48.408;-4.498;2022-12-11T16:20:35;7.84;71.84
69944;DHT22;57257;48.408;-4.498;2022-12-11T16:23:01;7.89;71.84
69944;DHT22;57257;48.408;-4.498;2022-12-11T16:25:28;7.92;71.76
69944;DHT22;57257;48.408;-4.498;2022-12-11T16:27:59;7.95;71.97
69944;DHT22;57257;48.408;-4.498;2022-12-11T16:30:26;7.96;71.91
69944;DHT22;57257;48.408;-4.498;2022-12-11T16:32:52;7.98;71.90
69944;DHT22;57257;48.408;-4.498;2022-12-11T16:35:19;7.99;71.69
69944;DHT22;57257;48.408;-4.498;2022-12-11T16:37:48;7.94;71.60
69944;DHT22;57257;48.408;-4.498;2022-12-11T16:40:14;7.92;71.68
69944;DHT22;57257;48.408;-4.498;2022-12-11T16:42:39;7.86;71.66
69944;DHT22;57257;48.408;-4.498;2022-12-11T16:45:07;7.89;71.91
69944;DHT22;57257;48.408;-4.498;2022-12-11T16:47:34;7.88;71.98
69944;DHT22;57257;48.408;-4.498;2022-12-11T16:49:59;7.85;71.79
69944;DHT22;57257;48.408;-4.498;2022-12-11T16:52:25;7.84;71.83
69944;DHT22;57257;48.408;-4.498;2022-12-11T16:54:51;7.78;71.98
69944;DHT22;57257;48.408;-4.498;2022-12-11T16:57:16;7.77;72.08
69944;DHT22;57257;48.408;-4.498;2022-12-11T16:59:41;7.74;72.08
69944;DHT22;57257;48.408;-4.498;2022-12-11T17:02:10;7.72;72.05
69944;DHT22;57257;48.408;-4.498;2022-12-11T17:04:37;7.70;72.02
69944;DHT22;57257;48.408;-4.498;2022-12-11T17:07:03;7.68;72.10
69944;DHT22;57257;48.408;-4.498;2022-12-11T17:09:28;7.68;72.04
69944;DHT22;57257;48.408;-4.498;2022-12-11T17:11:54;7.60;72.04
69944;DHT22;57257;48.408;-4.498;2022-12-11T17:14:20;7.54;71.96
69944;DHT22;57257;48.408;-4.498;2022-12-11T17:16:45;7.54;71.93